Time;durP1;ratioP1;P1;durP2;ratioP2;P2;SDS_P1;SDS_P2;PMS_P1;PMS_P2;Temp;Humidity;BMP_temperature;BMP_pressure;BME280_temperature;BME280_humidity;BME280_pressure;Samples;Min_cycle;Max_cycle;Signal;HPM_P1;HPM_P2
2023/05/30 00:02:31;0.00;0.00;0.62;0.00;0.00;0.62;2.63;1.63;;;28.40;17.90;;;;;;2257507;61;20402;-63
2023/05/30 00:05:15;0.00;0.00;0.62;0.00;0.00;0.62;4.30;2.00;;;28.40;18.00;;;;;;2257578;61;20822;-70
2023/05/30 00:08:01;0.00;0.00;0.62;0.00;0.00;0.62;2.50;1.47;;;28.40;18.00;;;;;;2257258;61;20412;-62
2023/05/30 00:10:47;0.00;0.00;0.62;0.00;0.00;0.62;3.07;1.93;;;28.40;18.00;;;;;;2257637;61;20416;-64
2023/05/30 00:13:32;0.00;0.00;0.62;0.00;0.00;0.62;2.60;1.73;;;28.40;18.00;;;;;;2257299;61;20387;-64
2023/05/30 00:16:19;0.00;0.00;0.62;0.00;0.00;0.62;4.23;1.80;;;28.30;17.90;;;;;;2257595;61;20921;-64
2023/05/30 00:19:04;0.00;0.00;0.62;0.00;0.00;0.62;3.60;2.53;;;28.40;18.00;;;;;;2257569;61;20361;-64
2023/05/30 00:21:49;0.00;0.00;0.62;0.00;0.00;0.62;4.00;1.93;;;28.40;18.10;;;;;;2256710;61;20889;-62
2023/05/30 00:24:34;0.00;0.00;0.62;0.00;0.00;0.62;4.03;2.03;;;28.30;18.00;;;;;;2253819;61;20965;-63
2023/05/30 00:27:20;0.00;0.00;0.62;0.00;0.00;0.62;7.10;2.87;;;28.30;18.00;;;;;;2253734;61;20444;-63
2023/05/30 00:30:07;0.00;0.00;0.62;0.00;0.00;0.62;2.97;1.90;;;28.30;18.00;;;;;;2252533;61;20919;-71
2023/05/30 00:32:51;0.00;0.00;0.62;0.00;0.00;0.62;5.10;2.90;;;28.30;18.10;;;;;;2253721;61;20759;-64
2023/05/30 00:35:36;0.00;0.00;0.62;0.00;0.00;0.62;3.57;2.00;;;28.30;18.10;;;;;;2253235;61;20351;-61
2023/05/30 00:38:21;0.00;0.00;0.62;0.00;0.00;0.62;4.57;2.40;;;28.30;18.10;;;;;;2249860;61;20777;-62
2023/05/30 00:41:05;0.00;0.00;0.62;0.00;0.00;0.62;4.43;1.77;;;28.30;18.10;;;;;;2250334;61;20386;-64
2023/05/30 00:43:51;0.00;0.00;0.62;0.00;0.00;0.62;4.00;2.33;;;28.30;18.10;;;;;;2249521;61;20467;-64
2023/05/30 00:46:39;0.00;0.00;0.62;0.00;0.00;0.62;4.20;1.90;;;28.30;18.10;;;;;;2253722;61;20382;-64
2023/05/30 00:49:25;0.00;0.00;0.62;0.00;0.00;0.62;4.13;1.83;;;28.30;18.20;;;;;;2250434;61;20950;-64
2023/05/30 00:52:10;0.00;0.00;0.62;0.00;0.00;0.62;4.40;1.83;;;28.30;18.20;;;;;;2252639;61;20375;-63
2023/05/30 00:55:01;0.00;0.00;0.62;0.00;0.00;0.62;3.37;1.70;;;28.30;18.20;;;;;;2253630;61;20367;-64
2023/05/30 00:57:47;0.00;0.00;0.62;0.00;0.00;0.62;5.47;2.20;;;28.30;18.30;;;;;;2252988;61;20434;-63
2023/05/30 01:00:38;0.00;0.00;0.62;0.00;0.00;0.62;3.77;2.10;;;28.20;18.20;;;;;;2248729;61;20359;-64
2023/05/30 01:03:27;0.00;0.00;0.62;0.00;0.00;0.62;3.27;1.70;;;28.20;18.20;;;;;;2256740;61;20794;-64
2023/05/30 01:06:12;0.00;0.00;0.62;0.00;0.00;0.62;3.50;1.70;;;28.20;18.20;;;;;;2255753;61;20787;-63
2023/05/30 01:08:58;0.00;0.00;0.62;0.00;0.00;0.62;4.60;2.03;;;28.20;18.30;;;;;;2256925;61;20384;-64
2023/05/30 01:11:58;0.00;0.00;0.62;0.00;0.00;0.62;5.13;2.47;;;28.20;18.30;;;;;;2253634;61;20354;-64
2023/05/30 01:14:52;0.00;0.00;0.62;0.00;0.00;0.62;5.53;2.33;;;28.20;18.30;;;;;;2256345;61;20373;-64
2023/05/30 01:17:50;0.00;0.00;0.62;0.00;0.00;0.62;2.93;1.63;;;28.20;18.90;;;;;;2257161;61;20664;-62
2023/05/30 01:20:44;0.00;0.00;0.62;0.00;0.00;0.62;2.70;1.70;;;28.20;18.30;;;;;;2256275;61;20401;-63
2023/05/30 01:23:49;0.00;0.00;0.62;0.00;0.00;0.62;4.20;1.90;;;28.20;18.30;;;;;;2251554;61;20382;-63
2023/05/30 01:27:03;0.00;0.00;0.62;0.00;0.00;0.62;3.97;1.73;;;28.20;18.40;;;;;;2253019;61;20374;-65
2023/05/30 01:29:50;0.00;0.00;0.62;0.00;0.00;0.62;3.60;2.30;;;28.10;18.30;;;;;;2251890;61;20351;-63
2023/05/30 01:32:36;0.00;0.00;0.62;0.00;0.00;0.62;5.43;2.07;;;28.10;18.30;;;;;;2252945;61;20367;-65
2023/05/30 01:35:24;0.00;0.00;0.62;0.00;0.00;0.62;6.00;2.60;;;28.10;18.40;;;;;;2251976;61;20402;-64
2023/05/30 01:38:09;0.00;0.00;0.62;0.00;0.00;0.62;5.30;2.20;;;28.10;18.40;;;;;;2252473;61;20382;-63
2023/05/30 01:40:58;0.00;0.00;0.62;0.00;0.00;0.62;3.37;1.77;;;28.10;18.40;;;;;;2249328;61;20362;-64
2023/05/30 01:43:53;0.00;0.00;0.62;0.00;0.00;0.62;3.60;1.97;;;28.10;19.00;;;;;;2248287;61;20370;-64
2023/05/30 01:46:47;0.00;0.00;0.62;0.00;0.00;0.62;4.07;2.17;;;28.10;18.40;;;;;;2249610;61;20434;-64
2023/05/30 01:49:43;0.00;0.00;0.62;0.00;0.00;0.62;3.43;2.03;;;28.10;18.40;;;;;;2248784;61;20363;-64
2023/05/30 01:52:32;0.00;0.00;0.62;0.00;0.00;0.62;3.80;1.67;;;28.10;18.50;;;;;;2248725;61;20407;-63
2023/05/30 01:55:22;0.00;0.00;0.62;0.00;0.00;0.62;2.90;1.77;;;28.10;18.50;;;;;;2252831;61;20410;-63
2023/05/30 01:58:08;0.00;0.00;0.62;0.00;0.00;0.62;4.73;2.40;;;28.10;18.50;;;;;;2248446;61;20403;-63
2023/05/30 02:00:55;0.00;0.00;0.62;0.00;0.00;0.62;2.93;1.70;;;28.10;18.50;;;;;;2249881;61;20374;-63
2023/05/30 02:03:41;0.00;0.00;0.62;0.00;0.00;0.62;5.03;2.20;;;28.10;18.50;;;;;;2256362;61;20444;-59
2023/05/30 02:06:26;0.00;0.00;0.62;0.00;0.00;0.62;4.60;2.20;;;28.10;18.50;;;;;;2256075;61;20924;-64
2023/05/30 02:09:10;0.00;0.00;0.62;0.00;0.00;0.62;3.00;1.70;;;28.10;18.50;;;;;;2253029;61;20402;-66
2023/05/30 02:11:55;0.00;0.00;0.62;0.00;0.00;0.62;2.67;1.60;;;28.10;18.50;;;;;;2252853;61;20369;-63
2023/05/30 02:14:40;0.00;0.00;0.62;0.00;0.00;0.62;4.40;1.87;;;28.00;18.50;;;;;;2253574;61;20406;-64
2023/05/30 02:17:25;0.00;0.00;0.62;0.00;0.00;0.62;4.67;2.53;;;28.10;18.60;;;;;;2249530;61;20927;-64
2023/05/30 02:20:11;0.00;0.00;0.62;0.00;0.00;0.62;6.10;2.70;;;28.10;18.60;;;;;;2251147;61;20359;-64
2023/05/30 02:22:56;0.00;0.00;0.62;0.00;0.00;0.62;5.33;2.10;;;28.00;18.60;;;;;;2253616;61;20981;-64
2023/05/30 02:25:40;0.00;0.00;0.62;0.00;0.00;0.62;6.63;1.90;;;28.00;18.60;;;;;;2256586;61;20409;-64
2023/05/30 02:28:25;0.00;0.00;0.62;0.00;0.00;0.62;3.10;1.80;;;28.00;18.60;;;;;;2255775;61;20370;-64
2023/05/30 02:31:10;0.00;0.00;0.62;0.00;0.00;0.62;5.43;1.87;;;28.00;18.60;;;;;;2253255;61;20429;-63
2023/05/30 02:33:55;0.00;0.00;0.62;0.00;0.00;0.62;2.53;1.50;;;28.00;18.60;;;;;;2255983;61;20401;-63
2023/05/30 02:36:42;0.00;0.00;0.62;0.00;0.00;0.62;4.50;2.50;;;28.00;18.70;;;;;;2252559;61;20914;-64
2023/05/30 02:39:27;0.00;0.00;0.62;0.00;0.00;0.62;3.80;2.60;;;28.00;18.70;;;;;;2252859;61;20450;-65
2023/05/30 02:42:13;0.00;0.00;0.62;0.00;0.00;0.62;4.73;2.10;;;28.00;18.70;;;;;;2252749;61;20420;-67
2023/05/30 02:44:58;0.00;0.00;0.62;0.00;0.00;0.62;3.40;1.77;;;28.00;18.70;;;;;;2253102;61;20362;-63
2023/05/30 02:47:42;0.00;0.00;0.62;0.00;0.00;0.62;3.20;1.77;;;28.00;18.70;;;;;;2253363;61;20417;-65
2023/05/30 02:50:27;0.00;0.00;0.62;0.00;0.00;0.62;4.03;2.47;;;27.90;18.60;;;;;;2251917;61;20412;-64
2023/05/30 02:53:13;0.00;0.00;0.62;0.00;0.00;0.62;4.43;2.10;;;28.00;18.70;;;;;;2253343;61;20392;-64
2023/05/30 02:55:59;0.00;0.00;0.62;0.00;0.00;0.62;3.03;1.80;;;27.90;18.70;;;;;;2253096;61;20474;-64
2023/05/30 02:59:04;0.00;0.00;0.62;0.00;0.00;0.62;4.83;2.20;;;27.90;18.70;;;;;;2252421;61;20404;-62
2023/05/30 03:02:09;0.00;0.00;0.62;0.00;0.00;0.62;3.90;1.93;;;27.90;18.80;;;;;;2250649;61;20446;-63
2023/05/30 03:04:55;0.00;0.00;0.62;0.00;0.00;0.62;5.20;2.50;;;27.90;18.80;;;;;;2248247;61;20417;-63
2023/05/30 03:07:40;0.00;0.00;0.62;0.00;0.00;0.62;4.83;2.30;;;27.90;18.80;;;;;;2249280;61;20804;-64
2023/05/30 03:10:27;0.00;0.00;0.62;0.00;0.00;0.62;6.00;2.83;;;27.90;18.80;;;;;;2248936;61;20386;-64
2023/05/30 03:13:12;0.00;0.00;0.62;0.00;0.00;0.62;5.07;2.13;;;27.90;18.80;;;;;;2248467;61;20410;-63
2023/05/30 03:15:57;0.00;0.00;0.62;0.00;0.00;0.62;4.87;2.43;;;27.90;18.80;;;;;;2483355;53;20379;-64
2023/05/30 03:18:42;0.00;0.00;0.62;0.00;0.00;0.62;3.43;2.10;;;27.90;18.80;;;;;;2248804;61;20871;-64
2023/05/30 03:21:27;0.00;0.00;0.62;0.00;0.00;0.62;5.90;2.00;;;27.80;18.80;;;;;;2251681;61;20363;-66
2023/05/30 03:24:12;0.00;0.00;0.62;0.00;0.00;0.62;4.77;2.40;;;27.90;18.90;;;;;;2252582;61;20412;-64
2023/05/30 03:27:03;0.00;0.00;0.62;0.00;0.00;0.62;4.40;2.53;;;27.90;18.90;;;;;;2252153;61;20417;-64
2023/05/30 03:29:49;0.00;0.00;0.62;0.00;0.00;0.62;5.47;2.33;;;27.80;18.80;;;;;;2256381;61;20910;-62
2023/05/30 03:32:33;0.00;0.00;0.62;0.00;0.00;0.62;3.07;2.10;;;27.80;18.80;;;;;;2256303;61;20370;-64
2023/05/30 03:35:18;0.00;0.00;0.62;0.00;0.00;0.62;3.73;1.97;;;27.80;18.80;;;;;;2252759;61;20806;-64
2023/05/30 03:38:03;0.00;0.00;0.62;0.00;0.00;0.62;3.27;1.77;;;27.80;18.90;;;;;;2253333;61;20957;-64
2023/05/30 03:40:49;0.00;0.00;0.62;0.00;0.00;0.62;2.90;1.57;;;27.80;18.90;;;;;;2252487;61;21040;-65
2023/05/30 03:43:35;0.00;0.00;0.62;0.00;0.00;0.62;6.20;2.10;;;27.80;18.90;;;;;;2252561;61;20386;-66
2023/05/30 03:46:21;0.00;0.00;0.62;0.00;0.00;0.62;4.70;2.47;;;27.80;18.90;;;;;;2256353;61;20405;-64
2023/05/30 03:49:06;0.00;0.00;0.62;0.00;0.00;0.62;3.83;1.87;;;27.80;18.90;;;;;;2251626;61;20428;-63
2023/05/30 03:51:51;0.00;0.00;0.62;0.00;0.00;0.62;4.33;2.23;;;27.80;18.90;;;;;;2256571;61;20366;-64
2023/05/30 03:54:36;0.00;0.00;0.62;0.00;0.00;0.62;3.90;2.00;;;27.80;18.90;;;;;;2256311;61;20370;-64
